sensor_id;sensor_type;location;lat;lon;timestamp;P1;durP1;ratioP1;P2;durP2;ratioP2
35294;SDS011;21413;48.032;7.764;2022-09-12T00:00:31;3.30;;;3.20;;
35294;SDS011;21413;48.032;7.764;2022-09-12T00:02:57;3.63;;;3.50;;
35294;SDS011;21413;48.032;7.764;2022-09-12T00:05:24;5.50;;;3.90;;
35294;SDS011;21413;48.032;7.764;2022-09-12T00:07:52;3.50;;;3.23;;
35294;SDS011;21413;48.032;7.764;2022-09-12T00:10:17;4.23;;;3.87;;
35294;SDS011;21413;48.032;7.764;2022-09-12T00:12:43;4.10;;;3.70;;
35294;SDS011;21413;48.032;7.764;2022-09-12T00:15:09;3.90;;;3.73;;
35294;SDS011;21413;48.032;7.764;2022-09-12T00:17:37;4.20;;;4.10;;
35294;SDS011;21413;48.032;7.764;2022-09-12T00:20:07;4.10;;;4.00;;
35294;SDS011;21413;48.032;7.764;2022-09-12T00:22:33;4.47;;;4.17;;
35294;SDS011;21413;48.032;7.764;2022-09-12T00:24:59;5.13;;;3.50;;
35294;SDS011;21413;48.032;7.764;2022-09-12T00:27:26;4.97;;;3.40;;
35294;SDS011;21413;48.032;7.764;2022-09-12T00:29:52;3.90;;;3.50;;
35294;SDS011;21413;48.032;7.764;2022-09-12T00:32:18;5.80;;;3.67;;
35294;SDS011;21413;48.032;7.764;2022-09-12T00:34:44;4.03;;;3.80;;
35294;SDS011;21413;48.032;7.764;2022-09-12T00:37:10;3.90;;;3.70;;
35294;SDS011;21413;48.032;7.764;2022-09-12T00:39:36;3.90;;;3.27;;
35294;SDS011;21413;48.032;7.764;2022-09-12T00:42:02;3.80;;;3.60;;
35294;SDS011;21413;48.032;7.764;2022-09-12T00:47:13;3.77;;;3.67;;
35294;SDS011;21413;48.032;7.764;2022-09-12T00:54:38;3.37;;;3.27;;
35294;SDS011;21413;48.032;7.764;2022-09-12T00:57:07;5.70;;;3.23;;
35294;SDS011;21413;48.032;7.764;2022-09-12T00:59:37;3.77;;;3.57;;
35294;SDS011;21413;48.032;7.764;2022-09-12T01:02:04;10.93;;;3.17;;
35294;SDS011;21413;48.032;7.764;2022-09-12T01:04:31;3.80;;;3.50;;
35294;SDS011;21413;48.032;7.764;2022-09-12T01:06:57;3.30;;;3.30;;
35294;SDS011;21413;48.032;7.764;2022-09-12T01:09:24;3.93;;;3.50;;
35294;SDS011;21413;48.032;7.764;2022-09-12T01:11:50;3.77;;;3.30;;
35294;SDS011;21413;48.032;7.764;2022-09-12T01:14:18;3.30;;;3.00;;
35294;SDS011;21413;48.032;7.764;2022-09-12T01:16:44;3.33;;;2.90;;
35294;SDS011;21413;48.032;7.764;2022-09-12T01:24:49;3.30;;;3.20;;
35294;SDS011;21413;48.032;7.764;2022-09-12T01:40:11;3.80;;;3.20;;
35294;SDS011;21413;48.032;7.764;2022-09-12T01:45:13;3.57;;;3.37;;
35294;SDS011;21413;48.032;7.764;2022-09-12T01:47:45;3.27;;;3.17;;
35294;SDS011;21413;48.032;7.764;2022-09-12T01:50:13;3.27;;;3.10;;
35294;SDS011;21413;48.032;7.764;2022-09-12T01:52:49;3.87;;;3.57;;
35294;SDS011;21413;48.032;7.764;2022-09-12T01:55:17;3.80;;;3.57;;
35294;SDS011;21413;48.032;7.764;2022-09-12T01:57:49;4.60;;;3.30;;
35294;SDS011;21413;48.032;7.764;2022-09-12T02:00:17;3.90;;;3.20;;
35294;SDS011;21413;48.032;7.764;2022-09-12T02:05:28;6.20;;;3.17;;
35294;SDS011;21413;48.032;7.764;2022-09-12T02:07:58;3.93;;;3.63;;
35294;SDS011;21413;48.032;7.764;2022-09-12T02:10:27;3.70;;;3.50;;
35294;SDS011;21413;48.032;7.764;2022-09-12T02:12:56;3.30;;;3.07;;
35294;SDS011;21413;48.032;7.764;2022-09-12T02:15:24;3.00;;;2.90;;
35294;SDS011;21413;48.032;7.764;2022-09-12T02:17:52;4.47;;;4.07;;
35294;SDS011;21413;48.032;7.764;2022-09-12T02:20:31;4.67;;;3.10;;
35294;SDS011;21413;48.032;7.764;2022-09-12T02:22:58;3.97;;;3.20;;
35294;SDS011;21413;48.032;7.764;2022-09-12T02:25:25;6.93;;;3.60;;
35294;SDS011;21413;48.032;7.764;2022-09-12T02:28:00;3.67;;;3.37;;
35294;SDS011;21413;48.032;7.764;2022-09-12T02:30:30;3.90;;;3.40;;
35294;SDS011;21413;48.032;7.764;2022-09-12T02:36:06;3.10;;;3.00;;
35294;SDS011;21413;48.032;7.764;2022-09-12T02:38:42;3.90;;;3.70;;
35294;SDS011;21413;48.032;7.764;2022-09-12T02:41:09;3.10;;;3.00;;
35294;SDS011;21413;48.032;7.764;2022-09-12T02:43:35;6.23;;;3.80;;
35294;SDS011;21413;48.032;7.764;2022-09-12T02:46:03;5.80;;;3.77;;
35294;SDS011;21413;48.032;7.764;2022-09-12T02:48:30;4.23;;;3.80;;
35294;SDS011;21413;48.032;7.764;2022-09-12T02:50:59;3.60;;;3.40;;
35294;SDS011;21413;48.032;7.764;2022-09-12T02:53:25;3.80;;;3.57;;
35294;SDS011;21413;48.032;7.764;2022-09-12T02:55:52;7.03;;;2.80;;
35294;SDS011;21413;48.032;7.764;2022-09-12T02:58:19;4.33;;;3.20;;
35294;SDS011;21413;48.032;7.764;2022-09-12T03:03:33;3.40;;;3.20;;
35294;SDS011;21413;48.032;7.764;2022-09-12T03:06:06;5.77;;;2.80;;
35294;SDS011;21413;48.032;7.764;2022-09-12T03:09:16;6.43;;;3.00;;
35294;SDS011;21413;48.032;7.764;2022-09-12T03:11:40;2.20;;;2.20;;
35294;SDS011;21413;48.032;7.764;2022-09-12T03:17:00;2.63;;;2.43;;
35294;SDS011;21413;48.032;7.764;2022-09-12T03:22:31;3.33;;;3.10;;
35294;SDS011;21413;48.032;7.764;2022-09-12T03:25:02;4.50;;;3.57;;
35294;SDS011;21413;48.032;7.764;2022-09-12T03:27:37;7.03;;;3.67;;
35294;SDS011;21413;48.032;7.764;2022-09-12T03:30:05;3.10;;;3.07;;
35294;SDS011;21413;48.032;7.764;2022-09-12T03:32:41;8.07;;;3.37;;
35294;SDS011;21413;48.032;7.764;2022-09-12T03:35:08;7.87;;;3.23;;
35294;SDS011;21413;48.032;7.764;2022-09-12T03:37:34;4.40;;;3.13;;
35294;SDS011;21413;48.032;7.764;2022-09-12T03:40:01;3.63;;;3.43;;
35294;SDS011;21413;48.032;7.764;2022-09-12T03:42:27;4.03;;;3.83;;
35294;SDS011;21413;48.032;7.764;2022-09-12T03:44:53;3.20;;;3.10;;
35294;SDS011;21413;48.032;7.764;2022-09-12T03:47:19;3.70;;;3.50;;
35294;SDS011;21413;48.032;7.764;2022-09-12T03:49:45;3.97;;;3.53;;
35294;SDS011;21413;48.032;7.764;2022-09-12T03:52:10;3.57;;;3.27;;
35294;SDS011;21413;48.032;7.764;2022-09-12T03:54:36;9.10;;;2.97;;
35294;SDS011;21413;48.032;7.764;2022-09-12T03:57:03;3.70;;;3.20;;
35294;SDS011;21413;48.032;7.764;2022-09-12T03:59:29;3.70;;;3.33;;
35294;SDS011;21413;48.032;7.764;2022-09-12T04:01:55;17.73;;;16.00;;
35294;SDS011;21413;48.032;7.764;2022-09-12T04:04:21;6.20;;;5.70;;
35294;SDS011;21413;48.032;7.764;2022-09-12T04:06:47;5.67;;;3.40;;
35294;SDS011;21413;48.032;7.764;2022-09-12T04:09:13;3.63;;;2.90;;
35294;SDS011;21413;48.032;7.764;2022-09-12T04:11:39;5.37;;;3.30;;
35294;SDS011;21413;48.032;7.764;2022-09-12T04:14:05;3.00;;;2.80;;
35294;SDS011;21413;48.032;7.764;2022-09-12T04:16:31;3.43;;;3.20;;
35294;SDS011;21413;48.032;7.764;2022-09-12T04:18:57;3.73;;;3.43;;
35294;SDS011;21413;48.032;7.764;2022-09-12T04:21:23;3.20;;;3.00;;
35294;SDS011;21413;48.032;7.764;2022-09-12T04:23:50;3.03;;;3.00;;
35294;SDS011;21413;48.032;7.764;2022-09-12T04:26:16;3.87;;;3.70;;
35294;SDS011;21413;48.032;7.764;2022-09-12T04:28:43;4.47;;;4.03;;
35294;SDS011;21413;48.032;7.764;2022-09-12T04:31:11;3.60;;;3.50;;
35294;SDS011;21413;48.032;7.764;2022-09-12T04:33:38;7.90;;;3.80;;
35294;SDS011;21413;48.032;7.764;2022-09-12T04:36:05;4.23;;;3.13;;
35294;SDS011;21413;48.032;7.764;2022-09-12T04:38:31;4.73;;;3.67;;
35294;SDS011;21413;48.032;7.764;2022-09-12T04:40:58;6.40;;;3.40;;
35294;SDS011;21413;48.032;7.764;2022-09-12T04:43:24;4.50;;;3.53;;
35294;SDS011;21413;48.032;7.764;2022-09-12T04:45:49;3.77;;;3.63;;
35294;SDS011;21413;48.032;7.764;2022-09-12T04:48:15;6.83;;;4.50;;
35294;SDS011;21413;48.032;7.764;2022-09-12T04:50:41;3.50;;;3.30;;
35294;SDS011;21413;48.032;7.764;2022-09-12T04:53:07;3.90;;;3.70;;
35294;SDS011;21413;48.032;7.764;2022-09-12T04:55:33;6.30;;;3.50;;
35294;SDS011;21413;48.032;7.764;2022-09-12T04:58:00;3.80;;;3.70;;
35294;SDS011;21413;48.032;7.764;2022-09-12T05:00:26;4.40;;;3.13;;
35294;SDS011;21413;48.032;7.764;2022-09-12T05:02:52;3.40;;;3.30;;
35294;SDS011;21413;48.032;7.764;2022-09-12T05:05:19;6.13;;;3.87;;
35294;SDS011;21413;48.032;7.764;2022-09-12T05:07:45;3.80;;;3.40;;
35294;SDS011;21413;48.032;7.764;2022-09-12T05:10:11;4.10;;;3.80;;
35294;SDS011;21413;48.032;7.764;2022-09-12T05:12:37;3.47;;;3.37;;
35294;SDS011;21413;48.032;7.764;2022-09-12T05:15:04;4.40;;;4.10;;
35294;SDS011;21413;48.032;7.764;2022-09-12T05:17:30;5.67;;;3.87;;
35294;SDS011;21413;48.032;7.764;2022-09-12T05:19:56;6.87;;;4.10;;
35294;SDS011;21413;48.032;7.764;2022-09-12T05:22:22;4.40;;;4.03;;
35294;SDS011;21413;48.032;7.764;2022-09-12T05:24:47;5.00;;;3.80;;
35294;SDS011;21413;48.032;7.764;2022-09-12T05:27:13;3.97;;;3.67;;
35294;SDS011;21413;48.032;7.764;2022-09-12T05:29:39;3.87;;;3.50;;
35294;SDS011;21413;48.032;7.764;2022-09-12T05:32:06;5.00;;;4.50;;
35294;SDS011;21413;48.032;7.764;2022-09-12T05:34:33;4.33;;;4.00;;
35294;SDS011;21413;48.032;7.764;2022-09-12T05:36:59;10.43;;;4.03;;
35294;SDS011;21413;48.032;7.764;2022-09-12T05:39:25;4.70;;;4.00;;
35294;SDS011;21413;48.032;7.764;2022-09-12T05:41:51;3.87;;;3.67;;
35294;SDS011;21413;48.032;7.764;2022-09-12T05:44:18;4.70;;;4.30;;
35294;SDS011;21413;48.032;7.764;2022-09-12T05:46:44;10.40;;;4.20;;
35294;SDS011;21413;48.032;7.764;2022-09-12T05:49:14;4.67;;;4.13;;
35294;SDS011;21413;48.032;7.764;2022-09-12T05:51:43;4.27;;;3.80;;
35294;SDS011;21413;48.032;7.764;2022-09-12T05:54:10;5.03;;;3.83;;
35294;SDS011;21413;48.032;7.764;2022-09-12T05:56:38;4.00;;;3.87;;
35294;SDS011;21413;48.032;7.764;2022-09-12T05:59:05;4.70;;;3.60;;
35294;SDS011;21413;48.032;7.764;2022-09-12T06:01:31;4.30;;;4.03;;
35294;SDS011;21413;48.032;7.764;2022-09-12T06:03:58;4.70;;;4.40;;
35294;SDS011;21413;48.032;7.764;2022-09-12T06:06:25;5.23;;;4.90;;
35294;SDS011;21413;48.032;7.764;2022-09-12T06:08:52;6.47;;;4.70;;
35294;SDS011;21413;48.032;7.764;2022-09-12T06:11:24;5.27;;;4.87;;
35294;SDS011;21413;48.032;7.764;2022-09-12T06:13:50;8.00;;;5.23;;
35294;SDS011;21413;48.032;7.764;2022-09-12T06:16:17;6.37;;;5.20;;
35294;SDS011;21413;48.032;7.764;2022-09-12T06:18:48;5.30;;;4.93;;
35294;SDS011;21413;48.032;7.764;2022-09-12T06:21:14;11.90;;;5.10;;
35294;SDS011;21413;48.032;7.764;2022-09-12T06:23:40;5.73;;;4.10;;
35294;SDS011;21413;48.032;7.764;2022-09-12T06:26:07;5.07;;;4.87;;
35294;SDS011;21413;48.032;7.764;2022-09-12T06:28:34;5.73;;;5.07;;
35294;SDS011;21413;48.032;7.764;2022-09-12T06:31:02;5.20;;;4.80;;
35294;SDS011;21413;48.032;7.764;2022-09-12T06:33:28;4.90;;;4.60;;
35294;SDS011;21413;48.032;7.764;2022-09-12T06:36:00;4.10;;;3.80;;
35294;SDS011;21413;48.032;7.764;2022-09-12T06:38:26;4.40;;;4.20;;
35294;SDS011;21413;48.032;7.764;2022-09-12T06:40:52;4.20;;;4.10;;
35294;SDS011;21413;48.032;7.764;2022-09-12T06:43:18;5.20;;;5.00;;
35294;SDS011;21413;48.032;7.764;2022-09-12T06:45:48;5.30;;;4.87;;
35294;SDS011;21413;48.032;7.764;2022-09-12T06:48:15;6.40;;;5.90;;
35294;SDS011;21413;48.032;7.764;2022-09-12T06:50:40;6.77;;;6.40;;
35294;SDS011;21413;48.032;7.764;2022-09-12T06:53:07;6.43;;;5.90;;
35294;SDS011;21413;48.032;7.764;2022-09-12T06:55:33;7.80;;;7.10;;
35294;SDS011;21413;48.032;7.764;2022-09-12T06:57:59;8.90;;;8.00;;
35294;SDS011;21413;48.032;7.764;2022-09-12T07:00:25;6.90;;;6.50;;
35294;SDS011;21413;48.032;7.764;2022-09-12T07:02:54;7.13;;;6.63;;
35294;SDS011;21413;48.032;7.764;2022-09-12T07:05:20;9.53;;;7.47;;
35294;SDS011;21413;48.032;7.764;2022-09-12T07:07:46;10.87;;;7.93;;
35294;SDS011;21413;48.032;7.764;2022-09-12T07:10:13;8.07;;;7.33;;
35294;SDS011;21413;48.032;7.764;2022-09-12T07:12:39;11.63;;;8.47;;
35294;SDS011;21413;48.032;7.764;2022-09-12T07:15:05;13.83;;;8.77;;
35294;SDS011;21413;48.032;7.764;2022-09-12T07:17:31;8.77;;;7.87;;
35294;SDS011;21413;48.032;7.764;2022-09-12T07:19:57;8.87;;;8.07;;
35294;SDS011;21413;48.032;7.764;2022-09-12T07:22:23;9.90;;;7.80;;
35294;SDS011;21413;48.032;7.764;2022-09-12T07:24:49;13.20;;;7.57;;
35294;SDS011;21413;48.032;7.764;2022-09-12T07:27:15;7.97;;;7.23;;
35294;SDS011;21413;48.032;7.764;2022-09-12T07:29:41;8.67;;;7.97;;
35294;SDS011;21413;48.032;7.764;2022-09-12T07:32:08;8.63;;;7.77;;
35294;SDS011;21413;48.032;7.764;2022-09-12T07:34:34;9.77;;;7.73;;
35294;SDS011;21413;48.032;7.764;2022-09-12T07:37:00;7.67;;;7.17;;
35294;SDS011;21413;48.032;7.764;2022-09-12T07:39:26;9.37;;;8.40;;
35294;SDS011;21413;48.032;7.764;2022-09-12T07:41:52;8.80;;;8.13;;
35294;SDS011;21413;48.032;7.764;2022-09-12T07:44:18;10.70;;;9.30;;
35294;SDS011;21413;48.032;7.764;2022-09-12T07:46:45;9.97;;;8.67;;
35294;SDS011;21413;48.032;7.764;2022-09-12T07:49:11;10.10;;;9.10;;
35294;SDS011;21413;48.032;7.764;2022-09-12T07:51:37;10.03;;;9.07;;
35294;SDS011;21413;48.032;7.764;2022-09-12T07:54:07;8.40;;;7.80;;
35294;SDS011;21413;48.032;7.764;2022-09-12T07:56:34;11.10;;;8.20;;
35294;SDS011;21413;48.032;7.764;2022-09-12T07:59:00;9.47;;;8.53;;
35294;SDS011;21413;48.032;7.764;2022-09-12T08:01:26;6.60;;;6.17;;
35294;SDS011;21413;48.032;7.764;2022-09-12T08:03:52;4.90;;;4.70;;
35294;SDS011;21413;48.032;7.764;2022-09-12T08:06:19;6.43;;;5.83;;
35294;SDS011;21413;48.032;7.764;2022-09-12T08:08:46;7.07;;;6.40;;
35294;SDS011;21413;48.032;7.764;2022-09-12T08:11:13;8.40;;;7.60;;
35294;SDS011;21413;48.032;7.764;2022-09-12T08:13:40;7.83;;;7.10;;
35294;SDS011;21413;48.032;7.764;2022-09-12T08:16:07;8.67;;;7.10;;
35294;SDS011;21413;48.032;7.764;2022-09-12T08:18:36;9.53;;;8.63;;
35294;SDS011;21413;48.032;7.764;2022-09-12T08:21:03;8.57;;;7.77;;
35294;SDS011;21413;48.032;7.764;2022-09-12T08:23:29;9.40;;;8.10;;
35294;SDS011;21413;48.032;7.764;2022-09-12T08:25:56;7.33;;;6.83;;
35294;SDS011;21413;48.032;7.764;2022-09-12T08:28:23;10.03;;;7.40;;
35294;SDS011;21413;48.032;7.764;2022-09-12T08:30:49;8.17;;;6.83;;
35294;SDS011;21413;48.032;7.764;2022-09-12T08:33:15;7.73;;;7.07;;
35294;SDS011;21413;48.032;7.764;2022-09-12T08:35:41;7.23;;;6.50;;
35294;SDS011;21413;48.032;7.764;2022-09-12T08:38:07;6.83;;;5.43;;
35294;SDS011;21413;48.032;7.764;2022-09-12T08:40:37;4.97;;;4.67;;
35294;SDS011;21413;48.032;7.764;2022-09-12T08:45:53;7.93;;;7.30;;
35294;SDS011;21413;48.032;7.764;2022-09-12T08:48:24;8.87;;;7.97;;
35294;SDS011;21413;48.032;7.764;2022-09-12T08:50:50;9.73;;;8.73;;
35294;SDS011;21413;48.032;7.764;2022-09-12T08:53:17;10.67;;;9.10;;
35294;SDS011;21413;48.032;7.764;2022-09-12T08:55:46;10.60;;;8.37;;
35294;SDS011;21413;48.032;7.764;2022-09-12T08:58:16;9.60;;;7.33;;
35294;SDS011;21413;48.032;7.764;2022-09-12T09:06:11;5.30;;;5.00;;
35294;SDS011;21413;48.032;7.764;2022-09-12T09:11:29;6.60;;;6.13;;
35294;SDS011;21413;48.032;7.764;2022-09-12T09:16:55;9.97;;;6.83;;
35294;SDS011;21413;48.032;7.764;2022-09-12T09:19:24;10.10;;;7.43;;
35294;SDS011;21413;48.032;7.764;2022-09-12T09:22:11;8.37;;;5.80;;
35294;SDS011;21413;48.032;7.764;2022-09-12T09:24:48;5.67;;;5.23;;
35294;SDS011;21413;48.032;7.764;2022-09-12T09:29:49;4.90;;;4.47;;
35294;SDS011;21413;48.032;7.764;2022-09-12T09:32:17;7.80;;;5.70;;
35294;SDS011;21413;48.032;7.764;2022-09-12T09:34:43;6.10;;;5.53;;
35294;SDS011;21413;48.032;7.764;2022-09-12T09:37:20;6.37;;;5.83;;
35294;SDS011;21413;48.032;7.764;2022-09-12T09:44:46;4.90;;;4.50;;
35294;SDS011;21413;48.032;7.764;2022-09-12T09:47:13;5.63;;;5.17;;
35294;SDS011;21413;48.032;7.764;2022-09-12T09:49:39;5.73;;;5.10;;
35294;SDS011;21413;48.032;7.764;2022-09-12T09:52:06;11.60;;;4.80;;
35294;SDS011;21413;48.032;7.764;2022-09-12T09:54:34;6.00;;;5.50;;
35294;SDS011;21413;48.032;7.764;2022-09-12T09:57:01;10.20;;;5.17;;
35294;SDS011;21413;48.032;7.764;2022-09-12T09:59:30;5.50;;;5.03;;
35294;SDS011;21413;48.032;7.764;2022-09-12T10:04:23;7.13;;;4.43;;
35294;SDS011;21413;48.032;7.764;2022-09-12T10:06:50;4.87;;;4.20;;
35294;SDS011;21413;48.032;7.764;2022-09-12T10:09:18;4.70;;;3.53;;
35294;SDS011;21413;48.032;7.764;2022-09-12T10:11:45;3.40;;;2.83;;
35294;SDS011;21413;48.032;7.764;2022-09-12T10:14:25;3.20;;;3.10;;
35294;SDS011;21413;48.032;7.764;2022-09-12T10:16:51;2.90;;;2.80;;
35294;SDS011;21413;48.032;7.764;2022-09-12T10:19:22;3.27;;;3.00;;
35294;SDS011;21413;48.032;7.764;2022-09-12T10:21:52;8.10;;;3.30;;
35294;SDS011;21413;48.032;7.764;2022-09-12T10:24:25;3.00;;;2.90;;
35294;SDS011;21413;48.032;7.764;2022-09-12T10:26:57;5.60;;;2.40;;
35294;SDS011;21413;48.032;7.764;2022-09-12T10:29:24;4.20;;;2.90;;
35294;SDS011;21413;48.032;7.764;2022-09-12T10:31:58;2.93;;;2.67;;
35294;SDS011;21413;48.032;7.764;2022-09-12T10:34:44;3.17;;;2.87;;
35294;SDS011;21413;48.032;7.764;2022-09-12T10:37:17;2.70;;;2.60;;
35294;SDS011;21413;48.032;7.764;2022-09-12T10:39:49;2.00;;;1.93;;
35294;SDS011;21413;48.032;7.764;2022-09-12T10:42:17;2.10;;;2.00;;
35294;SDS011;21413;48.032;7.764;2022-09-12T10:44:51;1.50;;;1.50;;
35294;SDS011;21413;48.032;7.764;2022-09-12T10:47:19;1.87;;;1.80;;
35294;SDS011;21413;48.032;7.764;2022-09-12T10:49:45;5.33;;;2.00;;
35294;SDS011;21413;48.032;7.764;2022-09-12T10:52:14;1.90;;;1.80;;
35294;SDS011;21413;48.032;7.764;2022-09-12T10:54:41;2.07;;;1.97;;
35294;SDS011;21413;48.032;7.764;2022-09-12T11:00:02;1.97;;;1.87;;
35294;SDS011;21413;48.032;7.764;2022-09-12T11:02:39;2.33;;;1.90;;
35294;SDS011;21413;48.032;7.764;2022-09-12T11:15:20;1.87;;;1.70;;
35294;SDS011;21413;48.032;7.764;2022-09-12T11:20:20;1.73;;;1.63;;
35294;SDS011;21413;48.032;7.764;2022-09-12T11:23:01;4.43;;;1.80;;
35294;SDS011;21413;48.032;7.764;2022-09-12T11:25:30;1.63;;;1.63;;
35294;SDS011;21413;48.032;7.764;2022-09-12T11:28:21;3.10;;;1.60;;
35294;SDS011;21413;48.032;7.764;2022-09-12T11:30:54;2.10;;;2.00;;
35294;SDS011;21413;48.032;7.764;2022-09-12T11:35:51;6.63;;;2.03;;
35294;SDS011;21413;48.032;7.764;2022-09-12T11:38:31;2.67;;;2.47;;
35294;SDS011;21413;48.032;7.764;2022-09-12T11:41:02;4.77;;;2.33;;
35294;SDS011;21413;48.032;7.764;2022-09-12T11:45:54;2.50;;;2.10;;
35294;SDS011;21413;48.032;7.764;2022-09-12T11:50:51;2.03;;;1.80;;
35294;SDS011;21413;48.032;7.764;2022-09-12T11:53:18;3.03;;;2.00;;
35294;SDS011;21413;48.032;7.764;2022-09-12T11:55:51;1.70;;;1.70;;
35294;SDS011;21413;48.032;7.764;2022-09-12T11:58:18;3.47;;;2.50;;
35294;SDS011;21413;48.032;7.764;2022-09-12T12:00:47;1.73;;;1.63;;
35294;SDS011;21413;48.032;7.764;2022-09-12T12:03:32;7.27;;;1.90;;
35294;SDS011;21413;48.032;7.764;2022-09-12T12:06:03;4.17;;;1.60;;
35294;SDS011;21413;48.032;7.764;2022-09-12T12:08:31;1.50;;;1.50;;
35294;SDS011;21413;48.032;7.764;2022-09-12T12:11:02;2.33;;;1.67;;
35294;SDS011;21413;48.032;7.764;2022-09-12T12:15:56;2.03;;;1.77;;
35294;SDS011;21413;48.032;7.764;2022-09-12T12:20:49;3.70;;;1.60;;
35294;SDS011;21413;48.032;7.764;2022-09-12T12:23:31;1.90;;;1.80;;
35294;SDS011;21413;48.032;7.764;2022-09-12T12:25:58;3.80;;;3.13;;
35294;SDS011;21413;48.032;7.764;2022-09-12T12:31:06;3.60;;;3.40;;
35294;SDS011;21413;48.032;7.764;2022-09-12T12:36:04;1.40;;;1.40;;
35294;SDS011;21413;48.032;7.764;2022-09-12T12:38:34;3.63;;;1.70;;
35294;SDS011;21413;48.032;7.764;2022-09-12T12:43:46;3.47;;;1.20;;
35294;SDS011;21413;48.032;7.764;2022-09-12T12:46:15;1.50;;;1.40;;
35294;SDS011;21413;48.032;7.764;2022-09-12T12:51:30;1.37;;;1.37;;
35294;SDS011;21413;48.032;7.764;2022-09-12T12:53:58;1.60;;;1.60;;
35294;SDS011;21413;48.032;7.764;2022-09-12T12:56:25;1.90;;;1.10;;
35294;SDS011;21413;48.032;7.764;2022-09-12T12:58:59;1.20;;;1.20;;
35294;SDS011;21413;48.032;7.764;2022-09-12T13:01:26;1.23;;;1.23;;
35294;SDS011;21413;48.032;7.764;2022-09-12T13:03:53;2.00;;;1.30;;
35294;SDS011;21413;48.032;7.764;2022-09-12T13:09:00;3.40;;;1.20;;
35294;SDS011;21413;48.032;7.764;2022-09-12T13:11:28;1.03;;;1.00;;
35294;SDS011;21413;48.032;7.764;2022-09-12T13:13:59;1.20;;;1.20;;
35294;SDS011;21413;48.032;7.764;2022-09-12T13:16:34;1.30;;;1.20;;
35294;SDS011;21413;48.032;7.764;2022-09-12T13:19:01;6.30;;;1.00;;
35294;SDS011;21413;48.032;7.764;2022-09-12T13:21:28;1.00;;;1.00;;
35294;SDS011;21413;48.032;7.764;2022-09-12T13:24:01;1.10;;;1.10;;
35294;SDS011;21413;48.032;7.764;2022-09-12T13:26:31;1.10;;;1.10;;
35294;SDS011;21413;48.032;7.764;2022-09-12T13:29:13;1.33;;;1.03;;
35294;SDS011;21413;48.032;7.764;2022-09-12T13:31:40;1.00;;;1.00;;
35294;SDS011;21413;48.032;7.764;2022-09-12T13:34:06;1.50;;;0.90;;
35294;SDS011;21413;48.032;7.764;2022-09-12T13:39:20;3.47;;;1.30;;
35294;SDS011;21413;48.032;7.764;2022-09-12T13:44:27;1.20;;;1.20;;
35294;SDS011;21413;48.032;7.764;2022-09-12T13:46:54;2.20;;;1.17;;
35294;SDS011;21413;48.032;7.764;2022-09-12T13:49:33;0.97;;;0.93;;
35294;SDS011;21413;48.032;7.764;2022-09-12T13:52:00;2.07;;;1.07;;
35294;SDS011;21413;48.032;7.764;2022-09-12T13:54:27;0.90;;;0.90;;
35294;SDS011;21413;48.032;7.764;2022-09-12T13:56:54;0.90;;;0.90;;
35294;SDS011;21413;48.032;7.764;2022-09-12T13:59:21;0.70;;;0.70;;
35294;SDS011;21413;48.032;7.764;2022-09-12T14:01:47;0.80;;;0.80;;
35294;SDS011;21413;48.032;7.764;2022-09-12T14:06:58;2.67;;;1.00;;
35294;SDS011;21413;48.032;7.764;2022-09-12T14:09:25;2.37;;;1.00;;
35294;SDS011;21413;48.032;7.764;2022-09-12T14:11:54;2.00;;;0.77;;
35294;SDS011;21413;48.032;7.764;2022-09-12T14:16:51;3.20;;;0.90;;
35294;SDS011;21413;48.032;7.764;2022-09-12T14:19:17;1.00;;;1.00;;
35294;SDS011;21413;48.032;7.764;2022-09-12T14:21:43;0.60;;;0.60;;
35294;SDS011;21413;48.032;7.764;2022-09-12T14:24:10;0.80;;;0.80;;
35294;SDS011;21413;48.032;7.764;2022-09-12T14:26:37;3.27;;;1.00;;
35294;SDS011;21413;48.032;7.764;2022-09-12T14:29:04;6.10;;;1.13;;
35294;SDS011;21413;48.032;7.764;2022-09-12T14:31:32;0.90;;;0.90;;
35294;SDS011;21413;48.032;7.764;2022-09-12T14:34:12;1.00;;;1.00;;
35294;SDS011;21413;48.032;7.764;2022-09-12T14:36:40;1.07;;;1.07;;
35294;SDS011;21413;48.032;7.764;2022-09-12T14:39:17;2.00;;;0.73;;
35294;SDS011;21413;48.032;7.764;2022-09-12T14:41:46;0.70;;;0.70;;
35294;SDS011;21413;48.032;7.764;2022-09-12T14:44:16;0.90;;;0.90;;
35294;SDS011;21413;48.032;7.764;2022-09-12T14:46:44;0.70;;;0.70;;
35294;SDS011;21413;48.032;7.764;2022-09-12T14:49:24;1.10;;;1.00;;
35294;SDS011;21413;48.032;7.764;2022-09-12T14:52:05;1.00;;;0.90;;
35294;SDS011;21413;48.032;7.764;2022-09-12T14:54:33;1.07;;;1.07;;
35294;SDS011;21413;48.032;7.764;2022-09-12T14:59:35;5.40;;;0.80;;
35294;SDS011;21413;48.032;7.764;2022-09-12T15:04:50;4.00;;;1.07;;
35294;SDS011;21413;48.032;7.764;2022-09-12T15:07:21;0.80;;;0.80;;
35294;SDS011;21413;48.032;7.764;2022-09-12T15:09:49;1.70;;;0.90;;
35294;SDS011;21413;48.032;7.764;2022-09-12T15:12:15;4.10;;;1.67;;
35294;SDS011;21413;48.032;7.764;2022-09-12T15:14:41;2.00;;;1.90;;
35294;SDS011;21413;48.032;7.764;2022-09-12T15:17:07;2.60;;;1.40;;
35294;SDS011;21413;48.032;7.764;2022-09-12T15:19:33;4.30;;;0.90;;
35294;SDS011;21413;48.032;7.764;2022-09-12T15:21:59;1.90;;;1.00;;
35294;SDS011;21413;48.032;7.764;2022-09-12T15:24:25;1.00;;;1.00;;
35294;SDS011;21413;48.032;7.764;2022-09-12T15:26:51;0.77;;;0.77;;
35294;SDS011;21413;48.032;7.764;2022-09-12T15:29:17;0.67;;;0.67;;
35294;SDS011;21413;48.032;7.764;2022-09-12T15:31:45;0.73;;;0.73;;
35294;SDS011;21413;48.032;7.764;2022-09-12T15:34:11;0.70;;;0.70;;
35294;SDS011;21413;48.032;7.764;2022-09-12T15:36:37;1.07;;;1.07;;
35294;SDS011;21413;48.032;7.764;2022-09-12T15:39:03;0.80;;;0.80;;
35294;SDS011;21413;48.032;7.764;2022-09-12T15:41:36;0.80;;;0.80;;
35294;SDS011;21413;48.032;7.764;2022-09-12T15:44:05;1.23;;;0.80;;
35294;SDS011;21413;48.032;7.764;2022-09-12T15:46:32;0.93;;;0.73;;
35294;SDS011;21413;48.032;7.764;2022-09-12T15:48:58;2.33;;;0.93;;
35294;SDS011;21413;48.032;7.764;2022-09-12T15:51:24;1.27;;;1.20;;
35294;SDS011;21413;48.032;7.764;2022-09-12T15:53:50;0.60;;;0.60;;
35294;SDS011;21413;48.032;7.764;2022-09-12T15:56:17;1.23;;;0.90;;
35294;SDS011;21413;48.032;7.764;2022-09-12T15:58:43;0.60;;;0.60;;
35294;SDS011;21413;48.032;7.764;2022-09-12T16:01:10;2.53;;;1.00;;
35294;SDS011;21413;48.032;7.764;2022-09-12T16:03:37;0.90;;;0.80;;
35294;SDS011;21413;48.032;7.764;2022-09-12T16:06:03;0.97;;;0.97;;
35294;SDS011;21413;48.032;7.764;2022-09-12T16:08:30;0.70;;;0.70;;
35294;SDS011;21413;48.032;7.764;2022-09-12T16:11:03;0.70;;;0.70;;
35294;SDS011;21413;48.032;7.764;2022-09-12T16:13:30;1.10;;;1.10;;
35294;SDS011;21413;48.032;7.764;2022-09-12T16:15:56;0.90;;;0.90;;
35294;SDS011;21413;48.032;7.764;2022-09-12T16:18:23;0.63;;;0.63;;
35294;SDS011;21413;48.032;7.764;2022-09-12T16:20:52;0.90;;;0.90;;
35294;SDS011;21413;48.032;7.764;2022-09-12T16:23:19;0.90;;;0.90;;
35294;SDS011;21413;48.032;7.764;2022-09-12T16:25:45;0.87;;;0.87;;
35294;SDS011;21413;48.032;7.764;2022-09-12T16:28:11;1.40;;;0.93;;
35294;SDS011;21413;48.032;7.764;2022-09-12T16:30:37;0.80;;;0.80;;
35294;SDS011;21413;48.032;7.764;2022-09-12T16:33:03;1.10;;;1.10;;
35294;SDS011;21413;48.032;7.764;2022-09-12T16:35:29;3.80;;;0.80;;
35294;SDS011;21413;48.032;7.764;2022-09-12T16:37:55;2.63;;;0.87;;
35294;SDS011;21413;48.032;7.764;2022-09-12T16:40:21;12.90;;;0.90;;
35294;SDS011;21413;48.032;7.764;2022-09-12T16:42:48;6.17;;;1.00;;
35294;SDS011;21413;48.032;7.764;2022-09-12T16:45:14;0.83;;;0.83;;
35294;SDS011;21413;48.032;7.764;2022-09-12T16:47:40;7.67;;;6.97;;
35294;SDS011;21413;48.032;7.764;2022-09-12T16:50:06;1.20;;;1.20;;
35294;SDS011;21413;48.032;7.764;2022-09-12T16:52:33;1.90;;;0.70;;
35294;SDS011;21413;48.032;7.764;2022-09-12T16:54:58;0.97;;;0.80;;
35294;SDS011;21413;48.032;7.764;2022-09-12T16:57:24;0.90;;;0.90;;